createdAt,value
2022-12-01T00:01:34.375Z,83.61
2022-12-01T00:04:02.770Z,83.80
2022-12-01T00:06:30.557Z,83.68
2022-12-01T00:09:14.000Z,83.46
2022-12-01T00:11:43.178Z,83.46
2022-12-01T00:14:11.092Z,83.86
2022-12-01T00:16:40.594Z,83.72
2022-12-01T00:19:08.755Z,83.66
2022-12-01T00:21:36.567Z,83.91
2022-12-01T00:24:04.362Z,83.41
2022-12-01T00:26:32.658Z,83.30
2022-12-01T00:29:00.524Z,83.33
2022-12-01T00:31:28.570Z,83.87
2022-12-01T00:33:56.399Z,83.67
2022-12-01T00:36:24.348Z,83.10
2022-12-01T00:38:54.934Z,82.83
2022-12-01T00:41:24.530Z,82.92
2022-12-01T00:43:52.526Z,82.81
2022-12-01T00:46:20.956Z,82.80
2022-12-01T00:48:49.983Z,82.80
2022-12-01T00:51:17.918Z,82.68
2022-12-01T00:53:46.008Z,82.80
2022-12-01T00:56:14.903Z,82.93
2022-12-01T00:58:42.628Z,82.78
2022-12-01T01:01:10.667Z,82.67
2022-12-01T01:03:38.759Z,82.70
2022-12-01T01:06:10.962Z,82.77
2022-12-01T01:08:40.525Z,82.74
2022-12-01T01:11:09.293Z,82.57
2022-12-01T01:13:37.843Z,82.66
2022-12-01T01:16:14.771Z,82.72
2022-12-01T01:18:42.614Z,82.70
2022-12-01T01:21:13.877Z,83.04
2022-12-01T01:23:41.946Z,83.21
2022-12-01T01:26:14.809Z,83.46
2022-12-01T01:28:42.887Z,83.32
2022-12-01T01:31:14.867Z,83.25
2022-12-01T01:33:43.030Z,83.19
2022-12-01T01:36:11.044Z,83.21
2022-12-01T01:38:38.922Z,83.26
2022-12-01T01:41:07.215Z,83.08
2022-12-01T01:43:45.300Z,83.04
2022-12-01T01:46:24.895Z,82.93
2022-12-01T01:49:03.091Z,82.73
2022-12-01T01:51:40.456Z,82.61
2022-12-01T01:54:16.397Z,82.45
2022-12-01T01:56:45.167Z,82.42
2022-12-01T01:59:22.518Z,82.11
2022-12-01T02:01:57.616Z,82.30
2022-12-01T02:04:27.624Z,82.09
2022-12-01T02:06:55.538Z,81.94
2022-12-01T02:09:23.364Z,81.78
2022-12-01T02:12:16.403Z,81.84
2022-12-01T02:15:08.819Z,81.78
2022-12-01T02:17:51.917Z,81.50
2022-12-01T02:20:49.184Z,81.43
2022-12-01T02:23:47.241Z,81.38
2022-12-01T02:26:33.725Z,81.49
2022-12-01T02:29:29.604Z,81.42
2022-12-01T02:32:12.400Z,81.71
2022-12-01T02:35:09.925Z,81.37
2022-12-01T02:37:47.923Z,81.74
2022-12-01T02:40:24.947Z,81.77
2022-12-01T02:43:05.241Z,81.80
2022-12-01T02:45:43.260Z,82.01
2022-12-01T02:48:16.646Z,82.11
2022-12-01T02:50:46.349Z,82.02
2022-12-01T02:53:17.536Z,82.13
2022-12-01T02:55:51.883Z,82.44
2022-12-01T02:58:20.285Z,82.58
2022-12-01T03:01:02.486Z,82.60
2022-12-01T03:03:46.506Z,82.54
2022-12-01T03:06:26.853Z,82.75
2022-12-01T03:09:10.294Z,82.80
2022-12-01T03:11:57.785Z,82.84
2022-12-01T03:14:40.930Z,82.84
2022-12-01T03:17:14.894Z,82.84
2022-12-01T03:19:49.162Z,82.87
2022-12-01T03:22:24.856Z,82.93
2022-12-01T03:24:55.941Z,82.49
2022-12-01T03:27:29.869Z,82.59
2022-12-01T03:30:01.063Z,82.47
2022-12-01T03:32:35.502Z,82.30
2022-12-01T03:35:10.887Z,82.27
2022-12-01T03:37:53.581Z,82.02
2022-12-01T03:40:27.211Z,82.07
2022-12-01T03:42:59.764Z,81.93
2022-12-01T03:45:37.867Z,82.11
2022-12-01T03:48:06.483Z,81.91
2022-12-01T03:50:44.084Z,83.02
2022-12-01T03:53:20.241Z,82.53
2022-12-01T03:55:53.813Z,82.48
2022-12-01T03:58:28.762Z,82.38
2022-12-01T04:00:57.711Z,82.35
2022-12-01T04:03:26.563Z,82.96
2022-12-01T04:05:54.661Z,83.01
2022-12-01T04:08:22.490Z,82.87
2022-12-01T04:10:50.261Z,82.69
2022-12-01T04:13:23.305Z,82.57
2022-12-01T04:15:53.656Z,83.07
2022-12-01T04:18:22.189Z,83.63
2022-12-01T04:20:50.967Z,83.18
2022-12-01T04:23:36.612Z,82.94
2022-12-01T04:26:05.280Z,83.14
2022-12-01T04:28:35.997Z,83.18
2022-12-01T04:31:03.930Z,84.35
2022-12-01T04:33:31.832Z,84.19
2022-12-01T04:36:01.521Z,83.84
2022-12-01T04:38:31.030Z,83.52
2022-12-01T04:40:59.440Z,84.10
2022-12-01T04:43:27.166Z,83.63
2022-12-01T04:45:57.437Z,83.45
2022-12-01T04:48:25.221Z,83.49
2022-12-01T04:50:53.028Z,83.54
2022-12-01T04:53:21.028Z,83.34
2022-12-01T04:55:48.892Z,83.16
2022-12-01T04:58:16.692Z,83.17
2022-12-01T05:00:44.608Z,83.12
2022-12-01T05:03:15.227Z,82.95
2022-12-01T05:05:43.220Z,83.03
2022-12-01T05:08:11.072Z,82.93
2022-12-01T05:10:38.998Z,82.81
2022-12-01T05:13:06.891Z,82.76
2022-12-01T05:15:34.563Z,82.76
2022-12-01T05:18:02.376Z,82.86
2022-12-01T05:20:49.965Z,82.84
2022-12-01T05:23:17.739Z,82.87
2022-12-01T05:25:45.471Z,82.86
2022-12-01T05:28:13.331Z,82.87
2022-12-01T05:30:41.109Z,82.69
2022-12-01T05:33:08.826Z,82.55
2022-12-01T05:35:36.584Z,82.68
2022-12-01T05:38:08.003Z,82.52
2022-12-01T05:40:37.421Z,82.74
2022-12-01T05:43:06.055Z,82.59
2022-12-01T05:45:34.610Z,82.86
2022-12-01T05:48:02.875Z,82.64
2022-12-01T05:50:30.967Z,82.69
2022-12-01T05:52:58.730Z,82.57
2022-12-01T05:55:26.455Z,82.73
2022-12-01T05:57:54.258Z,82.61
2022-12-01T06:00:22.089Z,82.76
2022-12-01T06:02:49.780Z,83.02
2022-12-01T06:05:17.651Z,83.02
2022-12-01T06:07:45.570Z,83.35
2022-12-01T06:10:14.042Z,83.45
2022-12-01T06:12:41.923Z,83.81
2022-12-01T06:15:12.246Z,83.74
2022-12-01T06:17:40.714Z,83.75
2022-12-01T06:20:09.702Z,83.82
2022-12-01T06:22:37.460Z,83.93
2022-12-01T06:25:07.407Z,83.93
2022-12-01T06:27:35.243Z,83.66
2022-12-01T06:30:04.850Z,83.73
2022-12-01T06:32:32.602Z,83.59
2022-12-01T06:35:00.328Z,83.55
2022-12-01T06:37:28.396Z,83.36
2022-12-01T06:39:56.302Z,83.36
2022-12-01T06:42:24.035Z,83.31
2022-12-01T06:44:51.827Z,83.10
2022-12-01T06:47:22.386Z,82.91
2022-12-01T06:49:50.434Z,82.91
2022-12-01T06:52:18.398Z,82.79
2022-12-01T06:54:46.253Z,82.76
2022-12-01T06:57:14.513Z,82.82
2022-12-01T06:59:42.415Z,82.84
2022-12-01T07:02:11.758Z,82.90
2022-12-01T07:04:39.672Z,82.60
2022-12-01T07:07:07.733Z,82.69
2022-12-01T07:09:35.633Z,82.63
2022-12-01T07:12:03.617Z,82.65
2022-12-01T07:14:32.514Z,82.55
2022-12-01T07:17:00.343Z,82.63
2022-12-01T07:19:28.133Z,82.58
2022-12-01T07:21:56.166Z,82.47
2022-12-01T07:24:23.873Z,82.54
2022-12-01T07:26:51.687Z,82.48
2022-12-01T07:29:19.378Z,82.49
2022-12-01T07:31:47.158Z,82.21
2022-12-01T07:34:14.987Z,82.16
2022-12-01T07:36:42.646Z,82.06
2022-12-01T07:39:10.341Z,81.98
2022-12-01T07:41:38.204Z,81.88
2022-12-01T07:44:06.035Z,82.11
2022-12-01T07:46:33.824Z,81.96
2022-12-01T07:49:01.701Z,81.55
2022-12-01T07:51:29.431Z,80.66
2022-12-01T07:54:02.782Z,79.67
2022-12-01T07:56:31.502Z,80.20
2022-12-01T07:58:59.784Z,80.30
2022-12-01T08:01:27.658Z,80.41
2022-12-01T08:03:57.675Z,79.26
2022-12-01T08:06:26.330Z,79.30
2022-12-01T08:08:54.185Z,79.13
2022-12-01T08:11:24.600Z,77.96
2022-12-01T08:13:53.689Z,77.87
2022-12-01T08:16:25.030Z,78.07
2022-12-01T08:18:53.317Z,78.09
2022-12-01T08:21:23.480Z,78.63
2022-12-01T08:23:54.695Z,78.96
2022-12-01T08:26:24.284Z,78.52
2022-12-01T08:28:52.285Z,78.07
2022-12-01T08:31:29.530Z,77.06
2022-12-01T08:33:58.131Z,77.27
2022-12-01T08:36:26.815Z,77.13
2022-12-01T08:38:56.385Z,77.01
2022-12-01T08:41:25.046Z,76.73
2022-12-01T08:43:58.299Z,76.47
2022-12-01T08:46:30.973Z,76.79
2022-12-01T08:48:59.042Z,77.39
2022-12-01T08:51:27.043Z,77.69
2022-12-01T08:53:56.634Z,77.78
2022-12-01T08:56:29.860Z,77.60
2022-12-01T08:58:58.698Z,76.61
2022-12-01T09:01:29.332Z,74.86
2022-12-01T09:04:06.482Z,75.01
2022-12-01T09:06:40.451Z,75.37
2022-12-01T09:09:13.126Z,75.16
2022-12-01T09:11:44.001Z,74.66
2022-12-01T09:14:13.388Z,74.59
2022-12-01T09:16:42.856Z,74.88
2022-12-01T09:19:13.219Z,74.17
2022-12-01T09:21:43.442Z,73.06
2022-12-01T09:24:14.877Z,72.87
2022-12-01T09:26:43.027Z,72.66
2022-12-01T09:29:13.968Z,72.17
2022-12-01T09:31:42.859Z,71.95
2022-12-01T09:34:15.528Z,71.43
2022-12-01T09:36:43.871Z,70.47
2022-12-01T09:39:14.279Z,69.65
2022-12-01T09:41:47.743Z,69.42
2022-12-01T09:44:30.857Z,69.11
2022-12-01T09:47:19.218Z,68.57
2022-12-01T09:50:02.404Z,68.08
2022-12-01T09:52:38.716Z,68.76
2022-12-01T09:55:14.293Z,67.10
2022-12-01T09:57:48.019Z,67.74
2022-12-01T10:00:20.527Z,66.22
2022-12-01T10:03:12.333Z,66.61
2022-12-01T10:06:24.663Z,66.20
2022-12-01T10:08:41.743Z,65.04
2022-12-01T10:11:20.526Z,64.52
2022-12-01T10:13:48.581Z,64.46
2022-12-01T10:16:26.414Z,64.59
2022-12-01T10:19:05.991Z,63.81
2022-12-01T10:21:50.980Z,63.59
2022-12-01T10:24:38.353Z,64.08
2022-12-01T10:27:28.165Z,61.49
2022-12-01T10:30:05.686Z,59.41
2022-12-01T10:32:48.006Z,58.92
2022-12-01T10:35:18.904Z,58.93
2022-12-01T10:37:54.718Z,58.42
2022-12-01T10:40:23.265Z,57.30
2022-12-01T10:42:51.392Z,57.01
2022-12-01T10:45:35.346Z,55.25
2022-12-01T10:48:15.768Z,54.97
2022-12-01T10:50:50.147Z,54.54
2022-12-01T10:53:34.210Z,54.73
2022-12-01T10:56:08.580Z,54.75
2022-12-01T10:58:49.226Z,54.51
2022-12-01T11:01:22.946Z,53.44
2022-12-01T11:03:57.444Z,53.15
2022-12-01T11:06:28.569Z,53.12
2022-12-01T11:09:00.196Z,52.84
2022-12-01T11:11:34.200Z,52.38
2022-12-01T11:14:16.283Z,52.52
2022-12-01T11:16:46.849Z,52.55
2022-12-01T11:19:32.648Z,52.95
2022-12-01T11:22:03.273Z,52.51
2022-12-01T11:24:58.033Z,52.51
2022-12-01T11:27:30.303Z,52.72
2022-12-01T11:30:20.279Z,53.16
2022-12-01T11:32:59.701Z,52.32
2022-12-01T11:35:31.955Z,51.71
2022-12-01T11:40:54.541Z,48.60
2022-12-01T11:43:28.140Z,46.06
2022-12-01T11:45:58.889Z,45.99
2022-12-01T11:48:29.928Z,46.05
2022-12-01T11:51:37.738Z,47.40
2022-12-01T11:54:24.625Z,44.89
2022-12-01T11:57:25.431Z,42.18
2022-12-01T11:59:41.926Z,41.91
2022-12-01T12:02:48.241Z,42.04
2022-12-01T12:05:37.373Z,40.39
2022-12-01T12:08:29.059Z,40.39
2022-12-01T12:11:15.708Z,40.42
2022-12-01T12:14:10.433Z,39.96
2022-12-01T12:17:08.751Z,39.96
2022-12-01T12:20:07.204Z,40.69
2022-12-01T12:23:08.144Z,41.18
2022-12-01T12:26:00.993Z,41.36
2022-12-01T12:28:50.103Z,40.83
2022-12-01T12:31:39.670Z,40.76
2022-12-01T12:34:31.914Z,41.10
2022-12-01T12:37:22.990Z,40.87
2022-12-01T12:40:26.710Z,41.50
2022-12-01T12:43:19.402Z,41.77
2022-12-01T12:46:19.665Z,41.84
2022-12-01T12:49:20.233Z,41.81
2022-12-01T12:51:58.433Z,41.98
2022-12-01T12:54:35.916Z,42.39
2022-12-01T12:57:12.058Z,42.70
2022-12-01T12:59:48.814Z,42.93
2022-12-01T13:02:27.174Z,42.10
2022-12-01T13:05:20.720Z,42.83
2022-12-01T13:08:20.315Z,42.04
2022-12-01T13:11:03.233Z,42.10
2022-12-01T13:13:41.172Z,42.38
2022-12-01T13:16:15.883Z,43.21
2022-12-01T13:18:56.480Z,44.53
2022-12-01T13:21:24.387Z,45.93
2022-12-01T13:23:52.780Z,46.47
2022-12-01T13:26:22.117Z,47.44
2022-12-01T13:28:53.791Z,47.82
2022-12-01T13:31:22.490Z,48.04
2022-12-01T13:34:03.620Z,48.58
2022-12-01T13:36:49.187Z,49.18
2022-12-01T13:39:24.656Z,49.76
2022-12-01T13:42:04.998Z,50.90
2022-12-01T13:44:40.292Z,51.24
2022-12-01T13:47:37.032Z,52.18
2022-12-01T13:50:43.733Z,52.07
2022-12-01T13:53:33.089Z,53.37
2022-12-01T13:56:25.689Z,54.18
2022-12-01T13:58:54.864Z,54.24
2022-12-01T14:01:44.589Z,55.45
2022-12-01T14:04:32.485Z,55.70
2022-12-01T14:07:19.315Z,56.83
2022-12-01T14:09:51.150Z,58.13
2022-12-01T14:12:24.057Z,58.74
2022-12-01T14:14:57.293Z,59.37
2022-12-01T14:17:31.458Z,59.81
2022-12-01T14:20:21.513Z,60.11
2022-12-01T14:23:13.209Z,59.42
2022-12-01T14:25:42.683Z,59.45
2022-12-01T14:28:18.170Z,59.03
2022-12-01T14:31:06.091Z,59.39
2022-12-01T14:33:49.165Z,59.58
2022-12-01T14:36:34.762Z,59.73
2022-12-01T14:39:12.556Z,60.79
2022-12-01T14:41:48.799Z,62.82
2022-12-01T14:44:26.686Z,63.21
2022-12-01T14:47:01.880Z,64.86
2022-12-01T14:49:38.176Z,64.81
2022-12-01T14:52:13.941Z,65.79
2022-12-01T14:54:46.668Z,66.14
2022-12-01T14:57:18.330Z,65.82
2022-12-01T14:59:46.235Z,66.18
2022-12-01T15:02:14.772Z,66.32
2022-12-01T15:05:14.542Z,66.91
2022-12-01T15:07:46.437Z,65.30
2022-12-01T15:10:21.579Z,65.89
2022-12-01T15:12:50.505Z,65.06
2022-12-01T15:15:24.372Z,65.47
2022-12-01T15:17:55.662Z,67.41
2022-12-01T15:20:37.491Z,65.97
2022-12-01T15:23:13.752Z,67.15
2022-12-01T15:25:44.060Z,68.72
2022-12-01T15:28:16.807Z,67.94
2022-12-01T15:30:48.183Z,67.43
2022-12-01T15:33:28.401Z,68.28
2022-12-01T15:36:00.685Z,67.47
2022-12-01T15:38:33.400Z,67.04
2022-12-01T15:43:56.140Z,67.35
2022-12-01T15:46:30.790Z,68.31
2022-12-01T15:49:09.146Z,68.33
2022-12-01T15:51:37.066Z,67.68
2022-12-01T15:54:05.230Z,67.75
2022-12-01T15:56:36.472Z,67.71
2022-12-01T15:59:27.560Z,67.95
2022-12-01T16:01:56.947Z,68.22
2022-12-01T16:04:28.514Z,67.89
2022-12-01T16:07:01.968Z,67.70
2022-12-01T16:09:36.766Z,67.68
2022-12-01T16:12:18.533Z,67.47
2022-12-01T16:15:14.005Z,68.29
2022-12-01T16:17:45.960Z,67.86
2022-12-01T16:20:18.333Z,67.82
2022-12-01T16:22:48.984Z,67.58
2022-12-01T16:25:28.683Z,67.43
2022-12-01T16:27:57.394Z,67.55
2022-12-01T16:30:30.251Z,67.53
2022-12-01T16:33:04.755Z,67.02
2022-12-01T16:35:34.085Z,66.57
2022-12-01T16:38:15.709Z,66.47
2022-12-01T16:40:43.794Z,66.30
2022-12-01T16:43:16.264Z,66.09
2022-12-01T16:45:46.008Z,66.11
2022-12-01T16:48:13.752Z,66.20
2022-12-01T16:50:41.508Z,66.15
2022-12-01T16:53:10.500Z,65.82
2022-12-01T16:55:44.205Z,65.81
2022-12-01T16:58:12.253Z,65.86
2022-12-01T17:00:40.145Z,66.06
2022-12-01T17:03:11.799Z,66.15
2022-12-01T17:05:40.283Z,66.12
2022-12-01T17:08:08.612Z,66.32
2022-12-01T17:10:40.962Z,66.36
2022-12-01T17:13:08.938Z,66.65
2022-12-01T17:15:42.120Z,66.37
2022-12-01T17:18:10.283Z,66.54
2022-12-01T17:20:38.137Z,67.91
2022-12-01T17:23:06.187Z,67.51
2022-12-01T17:25:34.780Z,67.30
2022-12-01T17:28:02.577Z,68.10
2022-12-01T17:30:30.525Z,68.71
2022-12-01T17:32:58.489Z,68.29
2022-12-01T17:35:26.362Z,68.82
2022-12-01T17:37:54.236Z,68.83
2022-12-01T17:40:22.000Z,68.07
2022-12-01T17:42:51.132Z,68.29
2022-12-01T17:45:19.591Z,68.14
2022-12-01T17:47:47.542Z,67.96
2022-12-01T17:50:15.931Z,68.48
2022-12-01T17:52:43.855Z,68.87
2022-12-01T17:55:11.614Z,69.17
2022-12-01T17:57:39.428Z,69.24
2022-12-01T18:00:07.907Z,70.07
2022-12-01T18:02:36.724Z,70.30
2022-12-01T18:05:05.022Z,69.42
2022-12-01T18:07:33.015Z,69.69
2022-12-01T18:10:01.098Z,69.79
2022-12-01T18:12:28.951Z,70.00
2022-12-01T18:14:56.854Z,69.58
2022-12-01T18:17:26.163Z,69.32
2022-12-01T18:19:55.744Z,69.46
2022-12-01T18:22:24.553Z,70.18
2022-12-01T18:24:52.993Z,70.23
2022-12-01T18:27:20.997Z,69.94
2022-12-01T18:29:48.789Z,70.05
2022-12-01T18:32:17.010Z,69.95
2022-12-01T18:34:45.067Z,69.93
2022-12-01T18:37:16.214Z,69.97
2022-12-01T18:39:45.445Z,69.86
2022-12-01T18:42:14.471Z,69.97
2022-12-01T18:44:44.286Z,69.81
2022-12-01T18:47:14.131Z,70.45
2022-12-01T18:49:42.276Z,70.28
2022-12-01T18:52:13.599Z,70.08
2022-12-01T18:54:44.290Z,70.74
2022-12-01T18:57:14.729Z,70.63
2022-12-01T18:59:42.944Z,70.81
2022-12-01T19:02:10.855Z,70.39
2022-12-01T19:04:40.472Z,70.26
2022-12-01T19:07:08.294Z,70.50
2022-12-01T19:09:36.120Z,70.62
2022-12-01T19:12:04.833Z,70.40
2022-12-01T19:14:35.456Z,71.27
2022-12-01T19:17:03.758Z,71.00
2022-12-01T19:19:37.372Z,70.70
2022-12-01T19:22:05.987Z,71.21
2022-12-01T19:24:33.972Z,71.06
2022-12-01T19:27:03.097Z,71.39
2022-12-01T19:29:30.877Z,71.03
2022-12-01T19:31:58.889Z,72.83
2022-12-01T19:34:26.711Z,72.51
2022-12-01T19:36:59.639Z,72.33
2022-12-01T19:39:27.984Z,73.08
2022-12-01T19:41:58.388Z,72.98
2022-12-01T19:44:27.609Z,73.29
2022-12-01T19:46:55.598Z,73.61
2022-12-01T19:49:23.550Z,73.96
2022-12-01T19:51:51.490Z,73.78
2022-12-01T19:54:20.332Z,74.13
2022-12-01T19:56:49.144Z,73.61
2022-12-01T19:59:16.920Z,73.85
2022-12-01T20:01:44.972Z,74.04
2022-12-01T20:04:13.538Z,74.27
2022-12-01T20:06:41.332Z,74.49
2022-12-01T20:09:15.955Z,74.56
2022-12-01T20:11:59.029Z,74.81
2022-12-01T20:14:30.152Z,74.45
2022-12-01T20:16:58.134Z,74.72
2022-12-01T20:19:26.019Z,74.68
2022-12-01T20:21:57.383Z,74.55
2022-12-01T20:24:25.475Z,74.61
2022-12-01T20:26:58.964Z,74.81
2022-12-01T20:29:29.851Z,74.55
2022-12-01T20:32:01.588Z,74.17
2022-12-01T20:34:36.278Z,73.94
2022-12-01T20:37:05.349Z,73.83
2022-12-01T20:39:35.338Z,73.61
2022-12-01T20:42:05.706Z,73.48
2022-12-01T20:44:33.605Z,73.47
2022-12-01T20:47:01.717Z,73.28
2022-12-01T20:49:29.623Z,73.14
2022-12-01T20:51:57.639Z,73.03
2022-12-01T20:54:28.760Z,72.94
2022-12-01T20:56:58.287Z,73.03
2022-12-01T20:59:26.991Z,72.91
2022-12-01T21:01:54.904Z,72.75
2022-12-01T21:04:22.767Z,72.53
2022-12-01T21:06:50.531Z,72.81
2022-12-01T21:09:18.408Z,72.83
2022-12-01T21:12:02.398Z,73.13
2022-12-01T21:14:37.474Z,73.15
2022-12-01T21:17:33.263Z,73.16
2022-12-01T21:20:17.922Z,73.53
2022-12-01T21:22:46.168Z,73.39
2022-12-01T21:25:18.969Z,73.67
2022-12-01T21:27:47.500Z,73.94
2022-12-01T21:30:19.137Z,73.95
2022-12-01T21:32:48.350Z,74.18
2022-12-01T21:35:21.664Z,74.49
2022-12-01T21:37:51.271Z,74.78
2022-12-01T21:40:23.505Z,74.96
2022-12-01T21:42:51.541Z,74.59
2022-12-01T21:45:26.085Z,74.49
2022-12-01T21:48:00.132Z,74.26
2022-12-01T21:50:28.012Z,74.39
2022-12-01T21:52:55.814Z,74.41
2022-12-01T21:55:33.160Z,74.45
2022-12-01T21:58:01.277Z,74.49
2022-12-01T22:00:33.544Z,74.61
2022-12-01T22:03:29.673Z,74.42
2022-12-01T22:06:32.966Z,74.56
2022-12-01T22:09:12.582Z,74.77
2022-12-01T22:11:43.337Z,74.97
2022-12-01T22:14:16.018Z,74.96
2022-12-01T22:16:54.479Z,74.68
2022-12-01T22:19:29.117Z,74.59
2022-12-01T22:22:29.087Z,74.50
2022-12-01T22:25:01.788Z,74.83
2022-12-01T22:27:35.573Z,75.11
2022-12-01T22:30:23.752Z,75.26
2022-12-01T22:32:58.351Z,74.90
2022-12-01T22:35:31.483Z,75.05
2022-12-01T22:38:17.178Z,74.96
2022-12-01T22:40:55.619Z,74.68
2022-12-01T22:43:27.478Z,74.72
2022-12-01T22:46:07.196Z,74.85
2022-12-01T22:48:40.234Z,74.75
2022-12-01T22:51:25.659Z,74.72
2022-12-01T22:54:01.018Z,74.77
2022-12-01T22:56:39.838Z,74.92
2022-12-01T22:59:22.700Z,74.97
2022-12-01T23:01:56.496Z,74.98
2022-12-01T23:04:27.198Z,76.35
2022-12-01T23:07:00.362Z,76.31
2022-12-01T23:09:35.935Z,75.51
2022-12-01T23:12:24.983Z,75.18
2022-12-01T23:14:55.984Z,75.42
2022-12-01T23:17:34.190Z,75.30
2022-12-01T23:20:26.042Z,75.32
2022-12-01T23:22:56.099Z,75.22
2022-12-01T23:25:25.456Z,75.28
2022-12-01T23:27:56.000Z,75.85
2022-12-01T23:30:24.298Z,76.53
2022-12-01T23:33:01.871Z,77.25
2022-12-01T23:35:31.141Z,77.57
2022-12-01T23:37:59.150Z,77.94
2022-12-01T23:40:35.447Z,77.97
2022-12-01T23:43:15.659Z,77.94
2022-12-01T23:45:44.342Z,77.50
2022-12-01T23:48:19.305Z,77.30
2022-12-01T23:50:52.170Z,77.30
2022-12-01T23:53:30.762Z,76.97
2022-12-01T23:56:06.673Z,77.02
2022-12-01T23:58:34.706Z,77.47
